Terminal Aerodrome Forecast
Issued by NWS Jackson, MS

Home | Current Version | Previous Version | Text Only | Print | Product List | Glossary On
Versions: 1 2 3 4 5 6 7 8 9 10 11 12 13 14 15
000
FTUS44 KMEG 052330
TAFTUP
TAF
KTUP 052330Z 0600/0624 31013G23KT P6SM SKC
     FM060100 02003KT P6SM SKC
     FM061500 01010G15KT P6SM SCT050=

USA.gov is the U.S. government's official web portal to all federal, state and local government web resources and services.